DAUO/ELU METAR and TAF weather

Enter ICAO airport designator
Station Type Date Time Source
DAUO METAR 2018/11/27 02:30 UTC NOAA

DAUO 270230Z 29010KT 7000 NSC 15/04 Q1015


Station Type Date Time Source
DAUO Decoded METAR 2018/11/27 02:30 UTC NOAA

El Oued, Algeria (DAUO) 33-30N 006-07E 63M
Nov 26, 2018 - 09:30 PM EST / 2018.11.27 0230 UTC
Wind: from the WNW (290 degrees) at 12 MPH (10 KT):0
Visibility: 4 mile(s):0
Temperature: 59 F (15 C)
Dew Point: 39 F (4 C)
Relative Humidity: 47%
Pressure (altimeter): 29.97 in. Hg (1015 hPa)
ob: DAUO 270230Z 29010KT 7000 NSC 15/04 Q1015
cycle: 2

Station Type Date Time Source
DAUO TAF 2017/11/09 18:03 UTC NOAA

TAF DAUO 091700Z 0918/1009 28010KT 9999 SCT033 SCT100 PROB30
TEMPO 0918/0924 28015G25KT 5000 -TSRA FEW036CB


Example: see airport list